sensor_id;sensor_type;location;lat;lon;timestamp;P1;durP1;ratioP1;P2;durP2;ratioP2
80732;SDS011;70130;44.534;18.678;2024-03-08T00:02:13;52.88;;;25.73;;
80732;SDS011;70130;44.534;18.678;2024-03-08T00:04:39;62.20;;;28.15;;
80732;SDS011;70130;44.534;18.678;2024-03-08T00:07:05;68.97;;;29.83;;
80732;SDS011;70130;44.534;18.678;2024-03-08T00:09:32;61.30;;;27.13;;
80732;SDS011;70130;44.534;18.678;2024-03-08T00:11:58;56.15;;;27.98;;
80732;SDS011;70130;44.534;18.678;2024-03-08T00:14:23;54.47;;;25.67;;
80732;SDS011;70130;44.534;18.678;2024-03-08T00:16:49;53.17;;;26.73;;
80732;SDS011;70130;44.534;18.678;2024-03-08T00:19:15;55.40;;;26.92;;
80732;SDS011;70130;44.534;18.678;2024-03-08T00:21:40;53.58;;;24.08;;
80732;SDS011;70130;44.534;18.678;2024-03-08T00:24:07;47.95;;;24.17;;
80732;SDS011;70130;44.534;18.678;2024-03-08T00:26:33;55.10;;;24.77;;
80732;SDS011;70130;44.534;18.678;2024-03-08T00:28:58;55.55;;;25.02;;
80732;SDS011;70130;44.534;18.678;2024-03-08T00:31:24;62.70;;;29.17;;
80732;SDS011;70130;44.534;18.678;2024-03-08T00:33:50;62.50;;;29.63;;
80732;SDS011;70130;44.534;18.678;2024-03-08T00:36:17;64.28;;;27.63;;
80732;SDS011;70130;44.534;18.678;2024-03-08T00:38:43;59.60;;;28.55;;
80732;SDS011;70130;44.534;18.678;2024-03-08T00:41:08;54.45;;;26.30;;
80732;SDS011;70130;44.534;18.678;2024-03-08T00:43:34;64.97;;;27.20;;
80732;SDS011;70130;44.534;18.678;2024-03-08T00:45:59;55.00;;;29.33;;
80732;SDS011;70130;44.534;18.678;2024-03-08T00:48:26;61.63;;;28.97;;
80732;SDS011;70130;44.534;18.678;2024-03-08T00:50:52;59.42;;;28.85;;
80732;SDS011;70130;44.534;18.678;2024-03-08T00:53:17;57.25;;;25.55;;
80732;SDS011;70130;44.534;18.678;2024-03-08T00:55:43;56.27;;;24.33;;
80732;SDS011;70130;44.534;18.678;2024-03-08T00:58:11;58.05;;;25.95;;
80732;SDS011;70130;44.534;18.678;2024-03-08T01:00:37;52.92;;;26.00;;
80732;SDS011;70130;44.534;18.678;2024-03-08T01:03:06;48.97;;;22.70;;
80732;SDS011;70130;44.534;18.678;2024-03-08T01:05:32;53.10;;;23.58;;
80732;SDS011;70130;44.534;18.678;2024-03-08T01:07:58;57.03;;;25.52;;
80732;SDS011;70130;44.534;18.678;2024-03-08T01:10:24;52.60;;;25.23;;
80732;SDS011;70130;44.534;18.678;2024-03-08T01:12:50;54.47;;;24.33;;
80732;SDS011;70130;44.534;18.678;2024-03-08T01:15:16;53.33;;;24.40;;
80732;SDS011;70130;44.534;18.678;2024-03-08T01:17:41;69.50;;;29.42;;
80732;SDS011;70130;44.534;18.678;2024-03-08T01:20:09;60.80;;;26.83;;
80732;SDS011;70130;44.534;18.678;2024-03-08T01:22:37;65.68;;;31.42;;
80732;SDS011;70130;44.534;18.678;2024-03-08T01:25:04;70.07;;;29.65;;
80732;SDS011;70130;44.534;18.678;2024-03-08T01:27:30;66.20;;;30.17;;
80732;SDS011;70130;44.534;18.678;2024-03-08T01:29:56;62.70;;;28.88;;
80732;SDS011;70130;44.534;18.678;2024-03-08T01:32:22;66.85;;;29.42;;
80732;SDS011;70130;44.534;18.678;2024-03-08T01:34:48;62.30;;;30.40;;
80732;SDS011;70130;44.534;18.678;2024-03-08T01:37:14;65.43;;;30.75;;
80732;SDS011;70130;44.534;18.678;2024-03-08T01:39:40;67.25;;;29.20;;
80732;SDS011;70130;44.534;18.678;2024-03-08T01:42:05;66.38;;;30.08;;
80732;SDS011;70130;44.534;18.678;2024-03-08T01:44:31;67.65;;;30.83;;
80732;SDS011;70130;44.534;18.678;2024-03-08T01:46:57;69.80;;;29.95;;
80732;SDS011;70130;44.534;18.678;2024-03-08T01:49:23;74.72;;;31.33;;
80732;SDS011;70130;44.534;18.678;2024-03-08T01:51:50;71.95;;;31.65;;
80732;SDS011;70130;44.534;18.678;2024-03-08T01:54:16;76.25;;;31.77;;
80732;SDS011;70130;44.534;18.678;2024-03-08T01:56:45;75.32;;;33.42;;
80732;SDS011;70130;44.534;18.678;2024-03-08T01:59:11;78.13;;;35.17;;
80732;SDS011;70130;44.534;18.678;2024-03-08T02:01:39;79.93;;;34.00;;
80732;SDS011;70130;44.534;18.678;2024-03-08T02:04:05;76.90;;;33.42;;
80732;SDS011;70130;44.534;18.678;2024-03-08T02:06:32;76.95;;;33.47;;
80732;SDS011;70130;44.534;18.678;2024-03-08T02:08:58;72.25;;;31.55;;
80732;SDS011;70130;44.534;18.678;2024-03-08T02:11:24;63.88;;;29.48;;
80732;SDS011;70130;44.534;18.678;2024-03-08T02:13:50;59.45;;;28.50;;
80732;SDS011;70130;44.534;18.678;2024-03-08T02:16:22;63.50;;;29.45;;
80732;SDS011;70130;44.534;18.678;2024-03-08T02:18:48;68.53;;;30.00;;
80732;SDS011;70130;44.534;18.678;2024-03-08T02:21:13;68.53;;;29.15;;
80732;SDS011;70130;44.534;18.678;2024-03-08T02:23:45;63.85;;;28.85;;
80732;SDS011;70130;44.534;18.678;2024-03-08T02:26:11;68.18;;;27.35;;
80732;SDS011;70130;44.534;18.678;2024-03-08T02:28:37;54.83;;;26.45;;
80732;SDS011;70130;44.534;18.678;2024-03-08T02:31:03;58.15;;;26.25;;
80732;SDS011;70130;44.534;18.678;2024-03-08T02:33:33;61.78;;;26.65;;
80732;SDS011;70130;44.534;18.678;2024-03-08T02:35:59;56.08;;;25.27;;
80732;SDS011;70130;44.534;18.678;2024-03-08T02:38:24;61.25;;;27.73;;
80732;SDS011;70130;44.534;18.678;2024-03-08T02:40:50;61.38;;;28.15;;
80732;SDS011;70130;44.534;18.678;2024-03-08T02:43:17;59.97;;;26.63;;
80732;SDS011;70130;44.534;18.678;2024-03-08T02:45:44;52.03;;;25.17;;
80732;SDS011;70130;44.534;18.678;2024-03-08T02:48:13;55.03;;;25.65;;
80732;SDS011;70130;44.534;18.678;2024-03-08T02:50:40;54.00;;;25.33;;
80732;SDS011;70130;44.534;18.678;2024-03-08T02:53:07;49.70;;;23.35;;
80732;SDS011;70130;44.534;18.678;2024-03-08T02:55:35;47.63;;;24.17;;
80732;SDS011;70130;44.534;18.678;2024-03-08T02:58:03;51.17;;;23.63;;
80732;SDS011;70130;44.534;18.678;2024-03-08T03:00:29;51.10;;;23.43;;
80732;SDS011;70130;44.534;18.678;2024-03-08T03:02:59;45.37;;;22.73;;
80732;SDS011;70130;44.534;18.678;2024-03-08T03:05:28;47.88;;;22.65;;
80732;SDS011;70130;44.534;18.678;2024-03-08T03:07:54;46.92;;;22.95;;
80732;SDS011;70130;44.534;18.678;2024-03-08T03:10:20;53.15;;;25.85;;
80732;SDS011;70130;44.534;18.678;2024-03-08T03:12:47;52.67;;;25.30;;
80732;SDS011;70130;44.534;18.678;2024-03-08T03:15:16;63.20;;;27.90;;
80732;SDS011;70130;44.534;18.678;2024-03-08T03:17:49;66.88;;;30.48;;
80732;SDS011;70130;44.534;18.678;2024-03-08T03:20:18;65.35;;;31.30;;
80732;SDS011;70130;44.534;18.678;2024-03-08T03:22:58;65.90;;;31.75;;
80732;SDS011;70130;44.534;18.678;2024-03-08T03:25:26;65.93;;;30.60;;
80732;SDS011;70130;44.534;18.678;2024-03-08T03:27:58;64.13;;;29.73;;
80732;SDS011;70130;44.534;18.678;2024-03-08T03:30:24;66.97;;;31.75;;
80732;SDS011;70130;44.534;18.678;2024-03-08T03:32:51;67.43;;;30.58;;
80732;SDS011;70130;44.534;18.678;2024-03-08T03:35:18;69.55;;;32.08;;
80732;SDS011;70130;44.534;18.678;2024-03-08T03:37:45;68.05;;;31.55;;
80732;SDS011;70130;44.534;18.678;2024-03-08T03:40:27;62.75;;;28.23;;
80732;SDS011;70130;44.534;18.678;2024-03-08T03:42:56;61.33;;;30.27;;
80732;SDS011;70130;44.534;18.678;2024-03-08T03:45:22;66.47;;;30.50;;
80732;SDS011;70130;44.534;18.678;2024-03-08T03:47:50;67.03;;;30.58;;
80732;SDS011;70130;44.534;18.678;2024-03-08T03:50:20;59.33;;;29.40;;
80732;SDS011;70130;44.534;18.678;2024-03-08T03:52:47;67.30;;;30.55;;
80732;SDS011;70130;44.534;18.678;2024-03-08T03:55:13;62.53;;;29.52;;
80732;SDS011;70130;44.534;18.678;2024-03-08T03:57:39;64.22;;;30.35;;
80732;SDS011;70130;44.534;18.678;2024-03-08T04:00:06;72.90;;;31.80;;
80732;SDS011;70130;44.534;18.678;2024-03-08T04:02:38;67.07;;;30.05;;
80732;SDS011;70130;44.534;18.678;2024-03-08T04:05:07;59.97;;;28.98;;
80732;SDS011;70130;44.534;18.678;2024-03-08T04:07:35;65.28;;;30.70;;
80732;SDS011;70130;44.534;18.678;2024-03-08T04:10:01;69.78;;;33.75;;
80732;SDS011;70130;44.534;18.678;2024-03-08T04:12:28;66.37;;;31.50;;
80732;SDS011;70130;44.534;18.678;2024-03-08T04:14:55;72.80;;;33.17;;
80732;SDS011;70130;44.534;18.678;2024-03-08T04:17:21;80.70;;;34.08;;
80732;SDS011;70130;44.534;18.678;2024-03-08T04:19:47;70.40;;;34.10;;
80732;SDS011;70130;44.534;18.678;2024-03-08T04:22:15;73.70;;;33.90;;
80732;SDS011;70130;44.534;18.678;2024-03-08T04:24:43;73.38;;;32.70;;
80732;SDS011;70130;44.534;18.678;2024-03-08T04:27:09;71.55;;;31.98;;
80732;SDS011;70130;44.534;18.678;2024-03-08T04:29:35;72.73;;;33.70;;
80732;SDS011;70130;44.534;18.678;2024-03-08T04:32:02;68.97;;;30.63;;
80732;SDS011;70130;44.534;18.678;2024-03-08T04:34:30;65.73;;;32.03;;
80732;SDS011;70130;44.534;18.678;2024-03-08T04:36:59;67.82;;;31.15;;
80732;SDS011;70130;44.534;18.678;2024-03-08T04:39:25;62.33;;;30.27;;
80732;SDS011;70130;44.534;18.678;2024-03-08T04:41:53;62.45;;;31.42;;
80732;SDS011;70130;44.534;18.678;2024-03-08T04:44:21;74.07;;;32.67;;
80732;SDS011;70130;44.534;18.678;2024-03-08T04:46:49;75.95;;;31.65;;
80732;SDS011;70130;44.534;18.678;2024-03-08T04:49:15;64.15;;;32.13;;
80732;SDS011;70130;44.534;18.678;2024-03-08T04:51:41;66.80;;;31.02;;
80732;SDS011;70130;44.534;18.678;2024-03-08T04:54:06;65.75;;;29.60;;
80732;SDS011;70130;44.534;18.678;2024-03-08T04:56:32;63.78;;;28.75;;
80732;SDS011;70130;44.534;18.678;2024-03-08T04:58:58;70.50;;;31.42;;
80732;SDS011;70130;44.534;18.678;2024-03-08T05:01:24;62.83;;;29.98;;
80732;SDS011;70130;44.534;18.678;2024-03-08T05:03:50;66.82;;;29.70;;
80732;SDS011;70130;44.534;18.678;2024-03-08T05:06:16;63.13;;;30.77;;
80732;SDS011;70130;44.534;18.678;2024-03-08T05:08:42;64.18;;;29.73;;
80732;SDS011;70130;44.534;18.678;2024-03-08T05:11:08;59.40;;;28.20;;
80732;SDS011;70130;44.534;18.678;2024-03-08T05:13:34;63.33;;;28.13;;
80732;SDS011;70130;44.534;18.678;2024-03-08T05:16:00;62.03;;;29.23;;
80732;SDS011;70130;44.534;18.678;2024-03-08T05:18:26;78.07;;;35.17;;
80732;SDS011;70130;44.534;18.678;2024-03-08T05:20:53;81.93;;;37.17;;
80732;SDS011;70130;44.534;18.678;2024-03-08T05:23:19;88.07;;;38.33;;
80732;SDS011;70130;44.534;18.678;2024-03-08T05:25:45;89.07;;;38.17;;
80732;SDS011;70130;44.534;18.678;2024-03-08T05:28:14;84.60;;;35.77;;
80732;SDS011;70130;44.534;18.678;2024-03-08T05:30:39;75.97;;;34.13;;
80732;SDS011;70130;44.534;18.678;2024-03-08T05:33:05;62.00;;;31.47;;
80732;SDS011;70130;44.534;18.678;2024-03-08T05:35:30;81.90;;;37.57;;
80732;SDS011;70130;44.534;18.678;2024-03-08T05:38:00;84.00;;;37.92;;
80732;SDS011;70130;44.534;18.678;2024-03-08T05:40:27;70.68;;;30.45;;
80732;SDS011;70130;44.534;18.678;2024-03-08T05:42:57;68.57;;;31.15;;
80732;SDS011;70130;44.534;18.678;2024-03-08T05:45:25;59.38;;;25.95;;
80732;SDS011;70130;44.534;18.678;2024-03-08T05:47:51;59.08;;;27.42;;
80732;SDS011;70130;44.534;18.678;2024-03-08T05:50:17;65.20;;;28.15;;
80732;SDS011;70130;44.534;18.678;2024-03-08T05:52:43;51.50;;;25.70;;
80732;SDS011;70130;44.534;18.678;2024-03-08T05:55:09;53.47;;;26.08;;
80732;SDS011;70130;44.534;18.678;2024-03-08T05:57:35;55.35;;;26.30;;
80732;SDS011;70130;44.534;18.678;2024-03-08T06:00:05;47.35;;;23.83;;
80732;SDS011;70130;44.534;18.678;2024-03-08T06:02:38;51.13;;;24.20;;
80732;SDS011;70130;44.534;18.678;2024-03-08T06:05:09;47.58;;;24.90;;
80732;SDS011;70130;44.534;18.678;2024-03-08T06:07:37;51.50;;;24.77;;
80732;SDS011;70130;44.534;18.678;2024-03-08T06:10:06;58.22;;;26.27;;
80732;SDS011;70130;44.534;18.678;2024-03-08T06:12:35;45.75;;;22.20;;
80732;SDS011;70130;44.534;18.678;2024-03-08T06:15:06;47.17;;;22.75;;
80732;SDS011;70130;44.534;18.678;2024-03-08T06:17:32;43.03;;;21.65;;
80732;SDS011;70130;44.534;18.678;2024-03-08T06:19:59;46.83;;;24.33;;
80732;SDS011;70130;44.534;18.678;2024-03-08T06:22:24;61.85;;;28.98;;
80732;SDS011;70130;44.534;18.678;2024-03-08T06:24:50;58.97;;;26.02;;
80732;SDS011;70130;44.534;18.678;2024-03-08T06:27:16;43.35;;;22.70;;
80732;SDS011;70130;44.534;18.678;2024-03-08T06:29:42;57.20;;;27.90;;
80732;SDS011;70130;44.534;18.678;2024-03-08T06:32:08;67.43;;;34.03;;
80732;SDS011;70130;44.534;18.678;2024-03-08T06:34:34;61.53;;;29.48;;
80732;SDS011;70130;44.534;18.678;2024-03-08T06:37:02;61.97;;;29.38;;
80732;SDS011;70130;44.534;18.678;2024-03-08T06:39:27;83.57;;;39.33;;
80732;SDS011;70130;44.534;18.678;2024-03-08T06:41:57;74.13;;;34.87;;
80732;SDS011;70130;44.534;18.678;2024-03-08T06:44:23;66.35;;;31.08;;
80732;SDS011;70130;44.534;18.678;2024-03-08T06:46:48;93.47;;;40.08;;
80732;SDS011;70130;44.534;18.678;2024-03-08T06:49:14;91.75;;;41.40;;
80732;SDS011;70130;44.534;18.678;2024-03-08T06:51:40;91.43;;;42.40;;
80732;SDS011;70130;44.534;18.678;2024-03-08T06:54:06;79.88;;;37.42;;
80732;SDS011;70130;44.534;18.678;2024-03-08T06:56:34;82.55;;;36.95;;
80732;SDS011;70130;44.534;18.678;2024-03-08T06:59:00;80.88;;;34.58;;
80732;SDS011;70130;44.534;18.678;2024-03-08T07:01:28;61.10;;;29.55;;
80732;SDS011;70130;44.534;18.678;2024-03-08T07:03:57;69.68;;;30.42;;
80732;SDS011;70130;44.534;18.678;2024-03-08T07:06:23;56.72;;;29.50;;
80732;SDS011;70130;44.534;18.678;2024-03-08T07:08:49;64.95;;;31.13;;
80732;SDS011;70130;44.534;18.678;2024-03-08T07:11:14;61.38;;;28.75;;
80732;SDS011;70130;44.534;18.678;2024-03-08T07:13:44;60.17;;;28.85;;
80732;SDS011;70130;44.534;18.678;2024-03-08T07:16:11;55.17;;;26.95;;
80732;SDS011;70130;44.534;18.678;2024-03-08T07:18:37;53.95;;;26.63;;
80732;SDS011;70130;44.534;18.678;2024-03-08T07:21:05;51.63;;;26.25;;
80732;SDS011;70130;44.534;18.678;2024-03-08T07:23:31;57.55;;;27.52;;
80732;SDS011;70130;44.534;18.678;2024-03-08T07:26:15;57.33;;;26.33;;
80732;SDS011;70130;44.534;18.678;2024-03-08T07:28:41;59.60;;;27.20;;
80732;SDS011;70130;44.534;18.678;2024-03-08T07:31:07;58.05;;;25.67;;
80732;SDS011;70130;44.534;18.678;2024-03-08T07:33:42;69.07;;;29.25;;
80732;SDS011;70130;44.534;18.678;2024-03-08T07:36:07;76.13;;;35.22;;
80732;SDS011;70130;44.534;18.678;2024-03-08T07:38:33;60.97;;;29.67;;
80732;SDS011;70130;44.534;18.678;2024-03-08T07:40:59;59.80;;;29.58;;
80732;SDS011;70130;44.534;18.678;2024-03-08T07:43:25;66.90;;;31.15;;
80732;SDS011;70130;44.534;18.678;2024-03-08T07:45:51;69.55;;;32.10;;
80732;SDS011;70130;44.534;18.678;2024-03-08T07:48:19;60.05;;;29.20;;
80732;SDS011;70130;44.534;18.678;2024-03-08T07:50:44;151.27;;;37.33;;
80732;SDS011;70130;44.534;18.678;2024-03-08T07:53:11;67.75;;;30.58;;
80732;SDS011;70130;44.534;18.678;2024-03-08T07:55:37;63.38;;;28.23;;
80732;SDS011;70130;44.534;18.678;2024-03-08T07:58:04;75.45;;;34.55;;
80732;SDS011;70130;44.534;18.678;2024-03-08T08:00:30;77.30;;;35.78;;
80732;SDS011;70130;44.534;18.678;2024-03-08T08:02:59;73.38;;;31.40;;
80732;SDS011;70130;44.534;18.678;2024-03-08T08:05:25;63.83;;;28.33;;
80732;SDS011;70130;44.534;18.678;2024-03-08T08:07:51;63.05;;;28.90;;
80732;SDS011;70130;44.534;18.678;2024-03-08T08:10:18;62.20;;;31.10;;
80732;SDS011;70130;44.534;18.678;2024-03-08T08:12:50;62.05;;;30.48;;
80732;SDS011;70130;44.534;18.678;2024-03-08T08:15:16;62.15;;;29.33;;
80732;SDS011;70130;44.534;18.678;2024-03-08T08:17:43;58.17;;;27.77;;
80732;SDS011;70130;44.534;18.678;2024-03-08T08:20:10;56.33;;;28.27;;
80732;SDS011;70130;44.534;18.678;2024-03-08T08:22:41;56.65;;;28.23;;
80732;SDS011;70130;44.534;18.678;2024-03-08T08:25:08;56.55;;;27.00;;
80732;SDS011;70130;44.534;18.678;2024-03-08T08:27:35;55.15;;;26.98;;
80732;SDS011;70130;44.534;18.678;2024-03-08T08:30:05;61.70;;;27.77;;
80732;SDS011;70130;44.534;18.678;2024-03-08T08:32:36;56.35;;;27.27;;
80732;SDS011;70130;44.534;18.678;2024-03-08T08:35:05;35.42;;;18.60;;
80732;SDS011;70130;44.534;18.678;2024-03-08T08:37:32;58.10;;;25.52;;
80732;SDS011;70130;44.534;18.678;2024-03-08T08:40:01;64.03;;;27.52;;
80732;SDS011;70130;44.534;18.678;2024-03-08T08:42:30;42.95;;;21.10;;
80732;SDS011;70130;44.534;18.678;2024-03-08T08:44:57;49.42;;;23.50;;
80732;SDS011;70130;44.534;18.678;2024-03-08T08:47:23;54.85;;;23.73;;
80732;SDS011;70130;44.534;18.678;2024-03-08T08:49:48;62.13;;;22.90;;
80732;SDS011;70130;44.534;18.678;2024-03-08T08:52:15;42.88;;;21.17;;
80732;SDS011;70130;44.534;18.678;2024-03-08T08:54:42;44.67;;;19.35;;
80732;SDS011;70130;44.534;18.678;2024-03-08T08:57:08;49.13;;;20.48;;
80732;SDS011;70130;44.534;18.678;2024-03-08T08:59:34;39.95;;;19.65;;
80732;SDS011;70130;44.534;18.678;2024-03-08T09:02:05;41.10;;;20.38;;
80732;SDS011;70130;44.534;18.678;2024-03-08T09:04:32;37.95;;;17.45;;
80732;SDS011;70130;44.534;18.678;2024-03-08T09:06:58;36.60;;;18.30;;
80732;SDS011;70130;44.534;18.678;2024-03-08T09:09:23;30.60;;;17.50;;
80732;SDS011;70130;44.534;18.678;2024-03-08T09:11:50;31.25;;;17.48;;
80732;SDS011;70130;44.534;18.678;2024-03-08T09:14:16;28.95;;;13.77;;
80732;SDS011;70130;44.534;18.678;2024-03-08T09:16:42;27.50;;;13.77;;
80732;SDS011;70130;44.534;18.678;2024-03-08T09:19:08;29.58;;;14.52;;
80732;SDS011;70130;44.534;18.678;2024-03-08T09:21:36;31.67;;;15.27;;
80732;SDS011;70130;44.534;18.678;2024-03-08T09:24:02;28.33;;;15.55;;
80732;SDS011;70130;44.534;18.678;2024-03-08T09:26:28;30.67;;;15.13;;
80732;SDS011;70130;44.534;18.678;2024-03-08T09:28:53;32.67;;;15.05;;
80732;SDS011;70130;44.534;18.678;2024-03-08T09:31:22;33.80;;;14.70;;
80732;SDS011;70130;44.534;18.678;2024-03-08T09:33:51;26.77;;;15.02;;
80732;SDS011;70130;44.534;18.678;2024-03-08T09:36:17;32.35;;;15.32;;
80732;SDS011;70130;44.534;18.678;2024-03-08T09:38:43;35.72;;;17.02;;
80732;SDS011;70130;44.534;18.678;2024-03-08T09:41:09;31.20;;;15.60;;
80732;SDS011;70130;44.534;18.678;2024-03-08T09:43:38;29.45;;;14.55;;
80732;SDS011;70130;44.534;18.678;2024-03-08T09:46:04;28.30;;;14.63;;
80732;SDS011;70130;44.534;18.678;2024-03-08T09:48:32;29.30;;;16.75;;
80732;SDS011;70130;44.534;18.678;2024-03-08T09:50:58;34.75;;;17.30;;
80732;SDS011;70130;44.534;18.678;2024-03-08T09:53:24;30.55;;;14.77;;
80732;SDS011;70130;44.534;18.678;2024-03-08T09:55:49;34.00;;;15.43;;
80732;SDS011;70130;44.534;18.678;2024-03-08T09:58:15;43.33;;;17.90;;
80732;SDS011;70130;44.534;18.678;2024-03-08T10:00:52;34.42;;;15.13;;
80732;SDS011;70130;44.534;18.678;2024-03-08T10:03:19;30.58;;;15.52;;
80732;SDS011;70130;44.534;18.678;2024-03-08T10:05:45;34.08;;;16.88;;
80732;SDS011;70130;44.534;18.678;2024-03-08T10:08:11;40.78;;;18.17;;
80732;SDS011;70130;44.534;18.678;2024-03-08T10:10:38;31.38;;;16.75;;
80732;SDS011;70130;44.534;18.678;2024-03-08T10:13:07;35.58;;;17.48;;
80732;SDS011;70130;44.534;18.678;2024-03-08T10:15:33;34.10;;;16.98;;
80732;SDS011;70130;44.534;18.678;2024-03-08T10:18:00;36.42;;;17.55;;
80732;SDS011;70130;44.534;18.678;2024-03-08T10:20:28;29.95;;;16.20;;
80732;SDS011;70130;44.534;18.678;2024-03-08T10:23:02;34.80;;;16.50;;
80732;SDS011;70130;44.534;18.678;2024-03-08T10:25:33;35.65;;;16.73;;
80732;SDS011;70130;44.534;18.678;2024-03-08T10:28:00;35.80;;;18.20;;
80732;SDS011;70130;44.534;18.678;2024-03-08T10:30:29;39.58;;;21.15;;
80732;SDS011;70130;44.534;18.678;2024-03-08T10:32:55;33.95;;;16.52;;
80732;SDS011;70130;44.534;18.678;2024-03-08T10:35:24;33.97;;;16.80;;
80732;SDS011;70130;44.534;18.678;2024-03-08T10:37:54;33.13;;;15.02;;
80732;SDS011;70130;44.534;18.678;2024-03-08T10:40:25;35.97;;;15.25;;
80732;SDS011;70130;44.534;18.678;2024-03-08T10:42:56;32.67;;;14.27;;
80732;SDS011;70130;44.534;18.678;2024-03-08T10:45:35;24.02;;;13.60;;
80732;SDS011;70130;44.534;18.678;2024-03-08T10:50:47;30.80;;;14.27;;
80732;SDS011;70130;44.534;18.678;2024-03-08T10:53:18;25.75;;;14.82;;
80732;SDS011;70130;44.534;18.678;2024-03-08T10:55:47;31.55;;;15.13;;
80732;SDS011;70130;44.534;18.678;2024-03-08T10:58:13;27.98;;;14.80;;
80732;SDS011;70130;44.534;18.678;2024-03-08T11:00:40;28.83;;;14.68;;
80732;SDS011;70130;44.534;18.678;2024-03-08T11:03:07;30.40;;;15.55;;
80732;SDS011;70130;44.534;18.678;2024-03-08T11:05:39;29.48;;;16.17;;
80732;SDS011;70130;44.534;18.678;2024-03-08T11:10:51;30.88;;;16.02;;
80732;SDS011;70130;44.534;18.678;2024-03-08T11:13:32;24.42;;;13.27;;
80732;SDS011;70130;44.534;18.678;2024-03-08T11:16:00;25.65;;;14.23;;
80732;SDS011;70130;44.534;18.678;2024-03-08T11:18:28;33.28;;;15.85;;
80732;SDS011;70130;44.534;18.678;2024-03-08T11:20:54;26.30;;;13.48;;
80732;SDS011;70130;44.534;18.678;2024-03-08T11:23:22;39.03;;;16.17;;
80732;SDS011;70130;44.534;18.678;2024-03-08T11:25:49;30.50;;;15.75;;
80732;SDS011;70130;44.534;18.678;2024-03-08T11:28:18;25.35;;;13.70;;
80732;SDS011;70130;44.534;18.678;2024-03-08T11:31:31;21.42;;;13.80;;
80732;SDS011;70130;44.534;18.678;2024-03-08T11:33:35;34.80;;;14.38;;
80732;SDS011;70130;44.534;18.678;2024-03-08T11:38:45;27.30;;;14.45;;
80732;SDS011;70130;44.534;18.678;2024-03-08T11:41:17;24.75;;;13.73;;
80732;SDS011;70130;44.534;18.678;2024-03-08T11:43:47;23.58;;;13.23;;
80732;SDS011;70130;44.534;18.678;2024-03-08T11:46:14;28.33;;;14.30;;
80732;SDS011;70130;44.534;18.678;2024-03-08T11:48:41;26.83;;;14.00;;
80732;SDS011;70130;44.534;18.678;2024-03-08T11:51:11;25.60;;;14.03;;
80732;SDS011;70130;44.534;18.678;2024-03-08T11:53:38;26.40;;;13.98;;
80732;SDS011;70130;44.534;18.678;2024-03-08T11:56:08;25.73;;;13.98;;
80732;SDS011;70130;44.534;18.678;2024-03-08T11:58:38;23.42;;;13.90;;
80732;SDS011;70130;44.534;18.678;2024-03-08T12:01:08;23.45;;;12.90;;
80732;SDS011;70130;44.534;18.678;2024-03-08T12:03:41;28.20;;;15.57;;
80732;SDS011;70130;44.534;18.678;2024-03-08T12:06:10;26.90;;;13.57;;
80732;SDS011;70130;44.534;18.678;2024-03-08T12:08:36;35.80;;;15.15;;
80732;SDS011;70130;44.534;18.678;2024-03-08T12:11:04;28.00;;;14.57;;
80732;SDS011;70130;44.534;18.678;2024-03-08T12:13:31;31.40;;;16.00;;
80732;SDS011;70130;44.534;18.678;2024-03-08T12:15:59;34.05;;;16.25;;
80732;SDS011;70130;44.534;18.678;2024-03-08T12:18:32;22.33;;;12.23;;
80732;SDS011;70130;44.534;18.678;2024-03-08T12:23:39;28.25;;;14.80;;
80732;SDS011;70130;44.534;18.678;2024-03-08T12:26:12;27.02;;;13.23;;
80732;SDS011;70130;44.534;18.678;2024-03-08T12:28:40;29.42;;;14.65;;
80732;SDS011;70130;44.534;18.678;2024-03-08T12:31:28;27.83;;;13.85;;
80732;SDS011;70130;44.534;18.678;2024-03-08T12:33:55;27.48;;;14.18;;
80732;SDS011;70130;44.534;18.678;2024-03-08T12:36:24;23.50;;;13.18;;
80732;SDS011;70130;44.534;18.678;2024-03-08T12:38:53;23.92;;;13.60;;
80732;SDS011;70130;44.534;18.678;2024-03-08T12:41:22;31.15;;;16.55;;
80732;SDS011;70130;44.534;18.678;2024-03-08T12:43:48;29.73;;;14.93;;
80732;SDS011;70130;44.534;18.678;2024-03-08T12:46:17;22.73;;;14.05;;
80732;SDS011;70130;44.534;18.678;2024-03-08T12:48:47;33.15;;;15.60;;
80732;SDS011;70130;44.534;18.678;2024-03-08T12:51:14;28.63;;;15.13;;
80732;SDS011;70130;44.534;18.678;2024-03-08T12:53:41;31.25;;;16.17;;
80732;SDS011;70130;44.534;18.678;2024-03-08T12:56:09;28.63;;;15.10;;
80732;SDS011;70130;44.534;18.678;2024-03-08T12:58:38;28.77;;;15.07;;
80732;SDS011;70130;44.534;18.678;2024-03-08T13:01:04;26.33;;;14.68;;
80732;SDS011;70130;44.534;18.678;2024-03-08T13:03:33;32.83;;;15.48;;
80732;SDS011;70130;44.534;18.678;2024-03-08T13:06:04;29.58;;;15.98;;
80732;SDS011;70130;44.534;18.678;2024-03-08T13:08:36;32.35;;;16.13;;
80732;SDS011;70130;44.534;18.678;2024-03-08T13:11:05;23.42;;;12.70;;
80732;SDS011;70130;44.534;18.678;2024-03-08T13:13:32;23.83;;;12.85;;
80732;SDS011;70130;44.534;18.678;2024-03-08T13:16:01;25.55;;;13.35;;
80732;SDS011;70130;44.534;18.678;2024-03-08T13:18:27;27.52;;;14.27;;
80732;SDS011;70130;44.534;18.678;2024-03-08T13:20:54;22.52;;;13.50;;
80732;SDS011;70130;44.534;18.678;2024-03-08T13:23:20;24.35;;;12.68;;
80732;SDS011;70130;44.534;18.678;2024-03-08T13:25:46;20.15;;;11.48;;
80732;SDS011;70130;44.534;18.678;2024-03-08T13:28:14;25.58;;;13.63;;
80732;SDS011;70130;44.534;18.678;2024-03-08T13:30:41;24.20;;;13.02;;
80732;SDS011;70130;44.534;18.678;2024-03-08T13:33:07;23.63;;;13.30;;
80732;SDS011;70130;44.534;18.678;2024-03-08T13:35:32;20.23;;;12.63;;
80732;SDS011;70130;44.534;18.678;2024-03-08T13:37:59;24.15;;;12.85;;
80732;SDS011;70130;44.534;18.678;2024-03-08T13:40:28;19.25;;;10.68;;
80732;SDS011;70130;44.534;18.678;2024-03-08T13:42:53;21.70;;;11.85;;
80732;SDS011;70130;44.534;18.678;2024-03-08T13:45:19;20.05;;;11.50;;
80732;SDS011;70130;44.534;18.678;2024-03-08T13:47:49;20.65;;;12.32;;
80732;SDS011;70130;44.534;18.678;2024-03-08T13:50:16;21.88;;;11.98;;
80732;SDS011;70130;44.534;18.678;2024-03-08T13:52:46;21.52;;;12.35;;
80732;SDS011;70130;44.534;18.678;2024-03-08T13:55:17;24.50;;;12.15;;
80732;SDS011;70130;44.534;18.678;2024-03-08T13:57:43;24.75;;;12.70;;
80732;SDS011;70130;44.534;18.678;2024-03-08T14:00:13;23.17;;;12.82;;
80732;SDS011;70130;44.534;18.678;2024-03-08T14:02:40;24.83;;;12.65;;
80732;SDS011;70130;44.534;18.678;2024-03-08T14:05:09;21.40;;;13.32;;
80732;SDS011;70130;44.534;18.678;2024-03-08T14:07:36;20.80;;;12.38;;
80732;SDS011;70130;44.534;18.678;2024-03-08T14:10:02;22.70;;;12.13;;
80732;SDS011;70130;44.534;18.678;2024-03-08T14:12:28;21.05;;;11.73;;
80732;SDS011;70130;44.534;18.678;2024-03-08T14:14:55;20.17;;;11.95;;
80732;SDS011;70130;44.534;18.678;2024-03-08T14:17:27;17.10;;;11.05;;
80732;SDS011;70130;44.534;18.678;2024-03-08T14:19:56;23.08;;;11.57;;
80732;SDS011;70130;44.534;18.678;2024-03-08T14:22:21;18.63;;;11.00;;